createdAt,value
2023-04-14T00:00:07.248Z,99881.75
2023-04-14T00:02:36.244Z,99878.56
2023-04-14T00:05:04.197Z,99889.88
2023-04-14T00:07:30.737Z,99876.63
2023-04-14T00:09:57.190Z,99872.69
2023-04-14T00:12:23.958Z,99871.09
2023-04-14T00:14:50.648Z,99871.03
2023-04-14T00:17:17.244Z,99874.53
2023-04-14T00:19:43.653Z,99871.56
2023-04-14T00:22:10.054Z,99874.47
2023-04-14T00:24:43.463Z,99873.19
2023-04-14T00:27:12.931Z,99873.06
2023-04-14T00:29:39.520Z,99868.34
2023-04-14T00:32:06.906Z,99867.84
2023-04-14T00:34:33.916Z,99869.56
2023-04-14T00:37:00.436Z,99869.09
2023-04-14T00:39:26.953Z,99862.25
2023-04-14T00:41:53.421Z,99855.59
2023-04-14T00:44:19.978Z,99861.00
2023-04-14T00:46:47.347Z,99856.38
2023-04-14T00:49:16.669Z,99851.31
2023-04-14T00:51:45.720Z,99847.50
2023-04-14T00:54:14.651Z,99844.38
2023-04-14T00:56:41.805Z,99849.38
2023-04-14T00:59:11.681Z,99851.16
2023-04-14T01:01:38.782Z,99853.47
2023-04-14T01:04:05.987Z,99858.44
2023-04-14T01:06:33.221Z,99854.00
2023-04-14T01:09:00.231Z,99852.25
2023-04-14T01:11:45.412Z,99855.97
2023-04-14T01:14:43.246Z,99855.22
2023-04-14T01:17:19.752Z,99852.34
2023-04-14T01:20:18.895Z,99862.53
2023-04-14T01:22:55.409Z,99853.09
2023-04-14T01:25:42.911Z,99862.69
2023-04-14T01:28:32.449Z,99856.97
2023-04-14T01:31:20.650Z,99868.66
2023-04-14T01:34:18.074Z,99869.66
2023-04-14T01:36:50.515Z,99875.25
2023-04-14T01:39:21.400Z,99870.09
2023-04-14T01:41:52.357Z,99874.19
2023-04-14T01:44:24.018Z,99865.16
2023-04-14T01:46:53.242Z,99874.47
2023-04-14T01:49:22.222Z,99874.47
2023-04-14T01:51:50.325Z,99875.66
2023-04-14T01:54:21.394Z,99874.19
2023-04-14T01:56:50.572Z,99882.91
2023-04-14T01:59:18.925Z,99883.75
2023-04-14T02:01:46.730Z,99883.66
2023-04-14T02:04:14.109Z,99886.50
2023-04-14T02:06:40.891Z,99884.63
2023-04-14T02:09:12.371Z,99891.31
2023-04-14T02:11:40.531Z,99884.78
2023-04-14T02:14:09.686Z,99892.03
2023-04-14T02:16:40.310Z,99885.31
2023-04-14T02:19:07.619Z,99895.72
2023-04-14T02:21:35.457Z,99895.59
2023-04-14T02:24:02.898Z,99905.06
2023-04-14T02:26:32.325Z,99912.88
2023-04-14T02:32:14.726Z,99915.75
2023-04-14T02:35:03.364Z,99922.88
2023-04-14T02:37:37.586Z,99917.38
2023-04-14T02:40:11.193Z,99915.50
2023-04-14T02:42:43.615Z,99923.13
2023-04-14T02:45:15.094Z,99925.47
2023-04-14T02:47:46.806Z,99926.31
2023-04-14T02:50:18.370Z,99922.31
2023-04-14T02:52:51.282Z,99924.09
2023-04-14T02:55:22.541Z,99937.91
2023-04-14T02:57:50.499Z,99937.38
2023-04-14T03:00:22.514Z,99934.94
2023-04-14T03:02:50.340Z,99936.28
2023-04-14T03:05:17.132Z,99931.91
2023-04-14T03:07:44.849Z,99933.69
2023-04-14T03:10:12.239Z,99936.72
2023-04-14T03:12:40.775Z,99936.72
2023-04-14T03:15:07.765Z,99929.31
2023-04-14T03:17:36.950Z,99924.00
2023-04-14T03:20:04.194Z,99937.00
2023-04-14T03:22:34.300Z,99930.13
2023-04-14T03:25:01.134Z,99925.88
2023-04-14T03:27:32.005Z,99934.78
2023-04-14T03:30:01.877Z,99929.84
2023-04-14T03:32:41.608Z,99936.28
2023-04-14T03:35:09.502Z,99937.63
2023-04-14T03:37:39.783Z,99935.28
2023-04-14T03:40:11.373Z,99938.44
2023-04-14T03:42:40.654Z,99943.38
2023-04-14T03:45:07.860Z,99941.19
2023-04-14T03:47:37.622Z,99939.03
2023-04-14T03:50:09.056Z,99935.44
2023-04-14T03:52:37.987Z,99930.63
2023-04-14T03:55:07.102Z,99936.13
2023-04-14T03:57:36.094Z,99936.25
2023-04-14T04:00:05.220Z,99932.69
2023-04-14T04:02:34.623Z,99932.03
2023-04-14T04:05:04.549Z,99941.31
2023-04-14T04:07:32.481Z,99953.47
2023-04-14T04:09:59.916Z,99943.38
2023-04-14T04:12:27.798Z,99945.88
2023-04-14T04:14:54.192Z,99939.44
2023-04-14T04:17:23.687Z,99942.19
2023-04-14T04:19:51.542Z,99944.09
2023-04-14T04:22:20.915Z,99942.19
2023-04-14T04:24:51.054Z,99939.03
2023-04-14T04:27:27.744Z,99944.25
2023-04-14T04:29:57.601Z,99955.44
2023-04-14T04:32:26.970Z,99950.78
2023-04-14T04:34:54.572Z,99950.91
2023-04-14T04:37:28.205Z,99952.44
2023-04-14T04:39:58.322Z,99954.63
2023-04-14T04:42:25.261Z,99955.72
2023-04-14T04:44:52.047Z,99958.16
2023-04-14T04:47:18.610Z,99962.78
2023-04-14T04:49:45.011Z,99965.53
2023-04-14T04:52:11.422Z,99962.13
2023-04-14T04:54:37.866Z,99954.59
2023-04-14T04:57:04.279Z,99953.38
2023-04-14T04:59:37.399Z,99957.59
2023-04-14T05:02:04.686Z,99961.81
2023-04-14T05:04:31.135Z,99965.53
2023-04-14T05:06:57.785Z,99963.91
2023-04-14T05:09:24.252Z,99968.97
2023-04-14T05:11:50.645Z,99978.00
2023-04-14T05:14:17.154Z,99973.63
2023-04-14T05:16:43.562Z,99974.03
2023-04-14T05:19:10.027Z,99974.59
2023-04-14T05:21:36.511Z,99975.56
2023-04-14T05:24:02.990Z,99976.00
2023-04-14T05:29:01.723Z,99977.91
2023-04-14T05:31:28.372Z,99976.13
2023-04-14T05:33:54.849Z,99980.22
2023-04-14T05:36:21.474Z,99982.56
2023-04-14T05:38:47.839Z,99989.09
2023-04-14T05:41:14.831Z,99981.44
2023-04-14T05:43:41.348Z,99976.47
2023-04-14T05:46:07.879Z,99990.97
2023-04-14T05:48:36.276Z,99990.03
2023-04-14T05:51:02.669Z,99992.31
2023-04-14T05:53:29.109Z,99986.06
2023-04-14T05:55:57.088Z,99987.25
2023-04-14T05:58:26.754Z,99978.66
2023-04-14T06:00:53.293Z,99979.22
2023-04-14T06:03:19.789Z,99977.03
2023-04-14T06:05:48.170Z,99979.13
2023-04-14T06:08:14.714Z,99987.28
2023-04-14T06:10:41.409Z,99989.16
2023-04-14T06:13:08.637Z,99987.66
2023-04-14T06:15:35.208Z,99991.53
2023-04-14T06:18:01.656Z,99995.56
2023-04-14T06:20:32.878Z,99993.38
2023-04-14T06:23:00.794Z,99993.25
2023-04-14T06:25:29.792Z,99992.63
2023-04-14T06:27:56.947Z,99990.16
2023-04-14T06:30:23.467Z,99990.88
2023-04-14T06:32:54.287Z,99987.38
2023-04-14T06:35:32.569Z,99985.03
2023-04-14T06:38:00.571Z,99978.53
2023-04-14T06:40:27.035Z,99983.09
2023-04-14T06:42:53.410Z,99984.06
2023-04-14T06:45:19.971Z,99983.63
2023-04-14T06:47:46.478Z,99986.88
2023-04-14T06:50:15.159Z,99980.81
2023-04-14T06:52:41.500Z,99975.38
2023-04-14T06:55:10.717Z,99984.94
2023-04-14T06:57:37.087Z,99982.69
2023-04-14T07:00:07.236Z,99977.97
2023-04-14T07:02:33.798Z,99976.16
2023-04-14T07:05:00.319Z,99970.81
2023-04-14T07:07:26.730Z,99968.34
2023-04-14T07:09:55.384Z,99974.28
2023-04-14T07:12:24.040Z,99971.78
2023-04-14T07:14:53.072Z,99972.72
2023-04-14T07:17:20.025Z,99971.97
2023-04-14T07:19:48.860Z,99975.94
2023-04-14T07:22:22.675Z,99970.56
2023-04-14T07:24:53.793Z,99970.03
2023-04-14T07:27:20.242Z,99974.38
2023-04-14T07:29:46.727Z,99965.41
2023-04-14T07:32:13.446Z,99961.56
2023-04-14T07:34:43.525Z,99965.41
2023-04-14T07:37:10.908Z,99963.16
2023-04-14T07:39:39.742Z,99962.94
2023-04-14T07:42:06.750Z,99956.16
2023-04-14T07:44:33.342Z,99954.03
2023-04-14T07:46:59.915Z,99941.13
2023-04-14T07:49:28.928Z,99951.25
2023-04-14T07:51:56.181Z,99953.75
2023-04-14T07:54:25.879Z,99950.44
2023-04-14T07:56:52.316Z,99954.19
2023-04-14T07:59:21.489Z,99953.06
2023-04-14T08:01:50.628Z,99951.34
2023-04-14T08:04:17.376Z,99953.47
2023-04-14T08:06:43.928Z,99951.97
2023-04-14T08:09:10.633Z,99946.81
2023-04-14T08:11:37.039Z,99938.22
2023-04-14T08:14:04.699Z,99950.31
2023-04-14T08:16:32.529Z,99937.94
2023-04-14T08:19:01.602Z,99947.81
2023-04-14T08:21:28.420Z,99946.56
2023-04-14T08:23:59.526Z,99942.91
2023-04-14T08:26:27.566Z,99941.53
2023-04-14T08:28:54.541Z,99941.75
2023-04-14T08:31:27.112Z,99930.56
2023-04-14T08:33:53.555Z,99935.28
2023-04-14T08:36:20.476Z,99936.94
2023-04-14T08:38:47.130Z,99930.38
2023-04-14T08:41:16.838Z,99935.38
2023-04-14T08:43:43.839Z,99933.28
2023-04-14T08:46:11.587Z,99936.31
2023-04-14T08:48:41.159Z,99935.22
2023-04-14T08:51:18.824Z,99940.00
2023-04-14T08:53:48.334Z,99928.84
2023-04-14T08:56:17.950Z,99938.56
2023-04-14T08:58:47.755Z,99927.88
2023-04-14T09:01:17.103Z,99930.75
2023-04-14T09:03:43.961Z,99925.66
2023-04-14T09:06:10.844Z,99924.03
2023-04-14T09:08:38.063Z,99920.53
2023-04-14T09:11:04.704Z,99918.94
2023-04-14T09:13:31.728Z,99914.44
2023-04-14T09:16:00.019Z,99913.41
2023-04-14T09:18:28.543Z,99916.09
2023-04-14T09:21:49.970Z,99908.44
2023-04-14T09:23:44.712Z,99908.16
2023-04-14T09:26:16.219Z,99908.38
2023-04-14T09:28:45.345Z,99909.38
2023-04-14T09:31:12.264Z,99904.88
2023-04-14T09:33:43.297Z,99904.72
2023-04-14T09:36:19.576Z,99905.09
2023-04-14T09:38:47.112Z,99894.00
2023-04-14T09:41:22.424Z,99898.06
2023-04-14T09:43:50.293Z,99899.09
2023-04-14T09:46:17.078Z,99899.19
2023-04-14T09:48:52.038Z,99892.47
2023-04-14T09:51:22.657Z,99899.16
2023-04-14T09:53:49.887Z,99893.13
2023-04-14T09:56:16.380Z,99888.47
2023-04-14T09:58:46.717Z,99889.53
2023-04-14T10:01:15.677Z,99887.91
2023-04-14T10:03:44.555Z,99893.75
2023-04-14T10:06:22.114Z,99891.00
2023-04-14T10:08:50.160Z,99893.03
2023-04-14T10:11:21.642Z,99879.06
2023-04-14T10:13:50.992Z,99884.88
2023-04-14T10:16:19.948Z,99885.53
2023-04-14T10:18:46.902Z,99881.97
2023-04-14T10:21:16.008Z,99879.19
2023-04-14T10:23:43.881Z,99877.13
2023-04-14T10:26:13.765Z,99865.41
2023-04-14T10:28:44.796Z,99873.66
2023-04-14T10:31:17.142Z,99864.59
2023-04-14T10:33:43.722Z,99859.13
2023-04-14T10:36:10.174Z,99859.66
2023-04-14T10:38:42.397Z,99856.84
2023-04-14T10:41:09.687Z,99855.53
2023-04-14T10:43:39.662Z,99859.63
2023-04-14T10:46:10.040Z,99859.75
2023-04-14T10:48:39.706Z,99855.06
2023-04-14T10:51:09.888Z,99849.34
2023-04-14T10:53:47.579Z,99844.78
2023-04-14T10:56:14.071Z,99846.88
2023-04-14T10:58:40.705Z,99836.28
2023-04-14T11:01:31.533Z,99835.81
2023-04-14T11:04:23.389Z,99838.25
2023-04-14T11:06:52.384Z,99834.09
2023-04-14T11:09:30.978Z,99831.59
2023-04-14T11:12:03.522Z,99826.28
2023-04-14T11:14:34.850Z,99818.28
2023-04-14T11:17:04.415Z,99815.06
2023-04-14T11:19:32.337Z,99813.72
2023-04-14T11:21:58.980Z,99805.34
2023-04-14T11:24:26.524Z,99807.84
2023-04-14T11:26:56.756Z,99799.56
2023-04-14T11:29:23.247Z,99807.69
2023-04-14T11:32:08.088Z,99801.56
2023-04-14T11:34:35.169Z,99794.31
2023-04-14T11:37:03.399Z,99787.34
2023-04-14T11:39:30.058Z,99781.22
2023-04-14T11:42:00.447Z,99774.22
2023-04-14T11:44:27.282Z,99767.19
2023-04-14T11:46:53.886Z,99767.53
2023-04-14T11:49:32.219Z,99768.84
2023-04-14T11:52:05.032Z,99751.41
2023-04-14T11:54:38.986Z,99763.97
2023-04-14T11:57:10.163Z,99760.75
2023-04-14T11:59:43.683Z,99749.56
2023-04-14T12:02:20.940Z,99746.16
2023-04-14T12:04:52.116Z,99741.25
2023-04-14T12:07:20.673Z,99742.72
2023-04-14T12:09:50.622Z,99730.53
2023-04-14T12:12:18.564Z,99729.75
2023-04-14T12:14:48.065Z,99734.69
2023-04-14T12:17:21.101Z,99735.38
2023-04-14T12:19:48.949Z,99725.13
2023-04-14T12:22:28.149Z,99724.94
2023-04-14T12:24:55.801Z,99725.31
2023-04-14T12:27:23.586Z,99720.25
2023-04-14T12:29:50.799Z,99720.69
2023-04-14T12:32:22.871Z,99713.09
2023-04-14T12:34:57.863Z,99709.31
2023-04-14T12:37:28.682Z,99706.00
2023-04-14T12:39:58.986Z,99710.06
2023-04-14T12:42:30.329Z,99701.00
2023-04-14T12:44:58.855Z,99704.97
2023-04-14T12:47:34.344Z,99697.41
2023-04-14T12:50:21.295Z,99688.25
2023-04-14T12:52:50.245Z,99690.19
2023-04-14T12:55:25.131Z,99680.94
2023-04-14T12:57:54.739Z,99677.69
2023-04-14T13:00:24.015Z,99668.66
2023-04-14T13:02:51.332Z,99676.97
2023-04-14T13:05:18.331Z,99674.69
2023-04-14T13:07:47.109Z,99658.72
2023-04-14T13:10:14.566Z,99660.72
2023-04-14T13:12:49.046Z,99656.81
2023-04-14T13:16:10.296Z,99657.34
2023-04-14T13:18:02.013Z,99651.72
2023-04-14T13:20:31.507Z,99645.72
2023-04-14T13:22:57.904Z,99646.41
2023-04-14T13:25:24.406Z,99642.84
2023-04-14T13:27:51.389Z,99643.59
2023-04-14T13:30:17.997Z,99640.50
2023-04-14T13:32:44.774Z,99636.09
2023-04-14T13:35:11.782Z,99633.50
2023-04-14T13:37:38.654Z,99633.16
2023-04-14T13:40:10.589Z,99629.84
2023-04-14T13:42:37.017Z,99631.78
2023-04-14T13:45:03.718Z,99630.84
2023-04-14T13:47:30.213Z,99634.09
2023-04-14T13:49:56.771Z,99622.00
2023-04-14T13:52:23.211Z,99622.31
2023-04-14T13:54:50.370Z,99615.56
2023-04-14T13:57:21.834Z,99609.97
2023-04-14T13:59:48.265Z,99611.78
2023-04-14T14:02:17.373Z,99608.44
2023-04-14T14:04:48.892Z,99603.19
2023-04-14T14:07:18.000Z,99606.28
2023-04-14T14:09:45.858Z,99590.19
2023-04-14T14:12:12.433Z,99594.84
2023-04-14T14:14:38.885Z,99590.50
2023-04-14T14:17:05.490Z,99598.38
2023-04-14T14:19:34.267Z,99576.53
2023-04-14T14:22:00.816Z,99581.63
2023-04-14T14:24:29.210Z,99577.03
2023-04-14T14:26:58.141Z,99585.56
2023-04-14T14:29:24.574Z,99577.22
2023-04-14T14:31:51.265Z,99569.41
2023-04-14T14:34:17.894Z,99572.72
2023-04-14T14:36:44.335Z,99571.13
2023-04-14T14:39:13.394Z,99559.44
2023-04-14T14:41:39.945Z,99574.44
2023-04-14T14:44:06.600Z,99573.16
2023-04-14T14:46:33.753Z,99571.06
2023-04-14T14:49:00.432Z,99579.91
2023-04-14T14:51:27.748Z,99582.47
2023-04-14T14:54:01.491Z,99583.97
2023-04-14T14:56:38.325Z,99574.63
2023-04-14T14:59:04.820Z,99571.97
2023-04-14T15:01:32.553Z,99577.47
2023-04-14T15:03:59.264Z,99573.44
2023-04-14T15:06:26.050Z,99570.44
2023-04-14T15:08:55.063Z,99574.06
2023-04-14T15:11:21.598Z,99566.81
2023-04-14T15:13:48.116Z,99569.41
2023-04-14T15:16:14.701Z,99565.34
2023-04-14T15:18:41.639Z,99563.16
2023-04-14T15:21:10.137Z,99572.69
2023-04-14T15:23:39.568Z,99571.75
2023-04-14T15:26:06.418Z,99571.97
2023-04-14T15:28:32.865Z,99568.16
2023-04-14T15:30:59.269Z,99570.00
2023-04-14T15:33:26.224Z,99571.06
2023-04-14T15:35:52.840Z,99574.38
2023-04-14T15:38:19.834Z,99570.19
2023-04-14T15:40:46.268Z,99564.28
2023-04-14T15:43:12.847Z,99563.75
2023-04-14T15:45:42.412Z,99566.03
2023-04-14T15:48:08.913Z,99567.31
2023-04-14T15:50:35.396Z,99573.66
2023-04-14T15:53:12.105Z,99569.81
2023-04-14T15:55:39.681Z,99569.66
2023-04-14T15:58:06.506Z,99577.81
2023-04-14T16:00:33.242Z,99573.53
2023-04-14T16:03:02.553Z,99576.72
2023-04-14T16:05:29.272Z,99579.00
2023-04-14T16:07:55.968Z,99581.66
2023-04-14T16:10:23.223Z,99578.25
2023-04-14T16:12:55.124Z,99573.09
2023-04-14T16:15:21.595Z,99576.97
2023-04-14T16:17:48.069Z,99574.13
2023-04-14T16:20:18.379Z,99576.41
2023-04-14T16:22:45.347Z,99574.38
2023-04-14T16:25:12.012Z,99578.56
2023-04-14T16:27:38.538Z,99581.31
2023-04-14T16:30:05.615Z,99579.50
2023-04-14T16:32:35.534Z,99574.91
2023-04-14T16:35:02.380Z,99573.88
2023-04-14T16:37:31.326Z,99571.53
2023-04-14T16:39:58.095Z,99574.97
2023-04-14T16:42:24.727Z,99576.59
2023-04-14T16:44:52.727Z,99574.56
2023-04-14T16:47:20.554Z,99576.41
2023-04-14T16:49:52.757Z,99575.97
2023-04-14T16:52:19.764Z,99581.69
2023-04-14T16:54:48.703Z,99577.16
2023-04-14T16:57:17.592Z,99573.84
2023-04-14T16:59:46.084Z,99572.72
2023-04-14T17:02:15.620Z,99575.91
2023-04-14T17:04:44.933Z,99577.63
2023-04-14T17:07:14.358Z,99576.28
2023-04-14T17:09:40.917Z,99580.41
2023-04-14T17:12:07.494Z,99572.69
2023-04-14T17:14:35.078Z,99572.53
2023-04-14T17:17:02.074Z,99576.63
2023-04-14T17:19:28.504Z,99579.13
2023-04-14T17:21:55.031Z,99578.69
2023-04-14T17:24:21.480Z,99573.41
2023-04-14T17:26:47.838Z,99580.75
2023-04-14T17:29:14.315Z,99582.38
2023-04-14T17:31:42.216Z,99579.34
2023-04-14T17:34:11.518Z,99581.19
2023-04-14T17:36:39.005Z,99586.63
2023-04-14T17:39:06.821Z,99585.41
2023-04-14T17:41:33.502Z,99582.78
2023-04-14T17:44:00.106Z,99585.19
2023-04-14T17:46:33.578Z,99586.38
2023-04-14T17:49:04.140Z,99581.50
2023-04-14T17:51:31.763Z,99580.28
2023-04-14T17:53:58.330Z,99577.63
2023-04-14T17:56:25.429Z,99584.84
2023-04-14T17:58:52.151Z,99576.13
2023-04-14T18:01:19.481Z,99582.19
2023-04-14T18:03:46.137Z,99578.09
2023-04-14T18:06:12.688Z,99580.69
2023-04-14T18:08:41.370Z,99584.72
2023-04-14T18:11:10.386Z,99590.34
2023-04-14T18:13:36.858Z,99596.97
2023-04-14T18:16:04.462Z,99588.84
2023-04-14T18:18:31.273Z,99599.31
2023-04-14T18:20:59.950Z,99593.59
2023-04-14T18:23:26.487Z,99591.91
2023-04-14T18:28:32.547Z,99597.97
2023-04-14T18:31:02.284Z,99598.72
2023-04-14T18:33:29.584Z,99605.25
2023-04-14T18:36:00.479Z,99601.19
2023-04-14T18:38:28.334Z,99605.53
2023-04-14T18:41:01.636Z,99615.31
2023-04-14T18:43:28.434Z,99607.75
2023-04-14T18:45:54.876Z,99613.22
2023-04-14T18:48:23.834Z,99606.19
2023-04-14T18:51:02.441Z,99624.38
2023-04-14T18:53:31.890Z,99613.41
2023-04-14T18:55:58.474Z,99613.91
2023-04-14T18:58:25.296Z,99618.44
2023-04-14T19:00:51.810Z,99624.28
2023-04-14T19:03:18.620Z,99617.81
2023-04-14T19:05:45.094Z,99621.78
2023-04-14T19:08:11.688Z,99623.16
2023-04-14T19:10:39.698Z,99623.81
2023-04-14T19:13:06.126Z,99623.94
2023-04-14T19:15:35.397Z,99631.09
2023-04-14T19:18:04.946Z,99629.13
2023-04-14T19:20:31.587Z,99627.22
2023-04-14T19:22:58.559Z,99634.38
2023-04-14T19:25:25.218Z,99632.28
2023-04-14T19:27:51.699Z,99634.38
2023-04-14T19:30:18.520Z,99639.19
2023-04-14T19:32:45.005Z,99642.09
2023-04-14T19:35:11.555Z,99653.84
2023-04-14T19:37:38.566Z,99644.88
2023-04-14T19:40:06.602Z,99643.16
2023-04-14T19:42:33.485Z,99642.31
2023-04-14T19:45:00.612Z,99645.22
2023-04-14T19:47:27.652Z,99644.41
2023-04-14T19:49:55.049Z,99647.63
2023-04-14T19:52:22.280Z,99641.13
2023-04-14T19:54:52.162Z,99646.13
2023-04-14T19:57:21.844Z,99643.50
2023-04-14T19:59:48.444Z,99638.50
2023-04-14T20:02:14.850Z,99641.28
2023-04-14T20:04:41.337Z,99640.72
2023-04-14T20:07:08.247Z,99641.78
2023-04-14T20:09:37.045Z,99635.53
2023-04-14T20:12:04.156Z,99636.53
2023-04-14T20:14:30.599Z,99632.78
2023-04-14T20:16:57.149Z,99644.81
2023-04-14T20:19:26.952Z,99639.34
2023-04-14T20:21:55.779Z,99637.31
2023-04-14T20:24:22.204Z,99633.22
2023-04-14T20:26:48.595Z,99629.59
2023-04-14T20:29:17.400Z,99632.81
2023-04-14T20:31:46.617Z,99628.38
2023-04-14T20:34:13.387Z,99631.06
2023-04-14T20:36:40.009Z,99623.25
2023-04-14T20:39:07.113Z,99624.19
2023-04-14T20:41:34.606Z,99629.09
2023-04-14T20:44:01.377Z,99629.13
2023-04-14T20:46:28.043Z,99630.47
2023-04-14T20:48:54.931Z,99628.41
2023-04-14T20:51:21.483Z,99622.97
2023-04-14T20:53:48.540Z,99624.44
2023-04-14T20:56:14.919Z,99623.16
2023-04-14T20:58:41.328Z,99623.03
2023-04-14T21:01:07.974Z,99631.38
2023-04-14T21:03:34.887Z,99637.47
2023-04-14T21:06:04.082Z,99630.16
2023-04-14T21:08:30.702Z,99634.25
2023-04-14T21:11:15.622Z,99632.31
2023-04-14T21:15:26.254Z,99635.25
2023-04-14T21:16:36.711Z,99627.94
2023-04-14T21:19:04.441Z,99624.50
2023-04-14T21:21:34.184Z,99633.84
2023-04-14T21:24:01.620Z,99634.97
2023-04-14T21:26:31.154Z,99641.72
2023-04-14T21:28:57.776Z,99644.34
2023-04-14T21:31:27.361Z,99646.66
2023-04-14T21:33:54.022Z,99647.44
2023-04-14T21:36:20.474Z,99641.56
2023-04-14T21:38:47.169Z,99640.75
2023-04-14T21:41:16.285Z,99639.78
2023-04-14T21:43:42.883Z,99637.16
2023-04-14T21:46:09.967Z,99640.91
2023-04-14T21:48:36.536Z,99645.16
2023-04-14T21:51:03.219Z,99645.81
2023-04-14T21:53:30.666Z,99644.69
2023-04-14T21:56:10.513Z,99648.44
2023-04-14T21:58:39.342Z,99651.84
2023-04-14T22:01:07.152Z,99641.88
2023-04-14T22:03:33.845Z,99646.97
2023-04-14T22:06:00.378Z,99654.44
2023-04-14T22:08:26.880Z,99652.31
2023-04-14T22:10:55.742Z,99653.16
2023-04-14T22:13:24.854Z,99648.72
2023-04-14T22:15:56.580Z,99652.03
2023-04-14T22:18:23.859Z,99650.53
2023-04-14T22:20:50.346Z,99651.69
2023-04-14T22:23:16.991Z,99646.63
2023-04-14T22:25:43.886Z,99650.69
2023-04-14T22:28:10.252Z,99643.81
2023-04-14T22:30:36.720Z,99657.22
2023-04-14T22:33:03.150Z,99649.88
2023-04-14T22:35:29.979Z,99655.25
2023-04-14T22:37:57.174Z,99656.53
2023-04-14T22:40:24.023Z,99653.59
2023-04-14T22:42:50.607Z,99652.25
2023-04-14T22:45:17.177Z,99662.53
2023-04-14T22:47:43.719Z,99662.34
2023-04-14T22:50:10.520Z,99660.72
2023-04-14T22:52:37.609Z,99659.38
2023-04-14T22:55:04.451Z,99661.03
2023-04-14T22:57:30.944Z,99663.13
2023-04-14T22:59:57.491Z,99657.38
2023-04-14T23:02:28.849Z,99659.66
2023-04-14T23:04:55.351Z,99659.50
2023-04-14T23:07:24.712Z,99665.56
2023-04-14T23:09:51.067Z,99660.66
2023-04-14T23:12:17.485Z,99673.97
2023-04-14T23:14:46.471Z,99665.31
2023-04-14T23:17:12.899Z,99672.66
2023-04-14T23:19:39.284Z,99674.78
2023-04-14T23:22:05.685Z,99675.44
2023-04-14T23:24:32.189Z,99673.81
2023-04-14T23:26:58.776Z,99679.53
2023-04-14T23:29:25.292Z,99680.81
2023-04-14T23:31:51.793Z,99674.75
2023-04-14T23:34:18.300Z,99675.25
2023-04-14T23:36:48.130Z,99672.59
2023-04-14T23:39:14.661Z,99669.84
2023-04-14T23:41:41.490Z,99675.38
2023-04-14T23:44:07.916Z,99669.34
2023-04-14T23:46:35.046Z,99673.06
2023-04-14T23:49:10.181Z,99667.34
2023-04-14T23:51:48.725Z,99667.47
2023-04-14T23:54:15.375Z,99661.81
2023-04-14T23:56:41.823Z,99665.19
2023-04-14T23:59:08.696Z,99659.78
